Time;durP1;ratioP1;P1;durP2;ratioP2;P2;SDS_P1;SDS_P2;PMS_P1;PMS_P2;Temp;Humidity;BMP_temperature;BMP_pressure;BME280_temperature;BME280_humidity;BME280_pressure;Samples;Min_cycle;Max_cycle;Signal;HPM_P1;HPM_P2
2022/11/29 00:01:20;;;;;;;32.28;14.63;;;;;;;-148.88;100.00;76520.72;5095031;28;20030;-74
2022/11/29 00:03:46;;;;;;;31.10;14.38;;;;;;;-148.88;100.00;76524.78;5094803;28;20026;-74
2022/11/29 00:06:14;;;;;;;30.27;14.35;;;;;;;-148.88;100.00;76526.81;5094754;28;20016;-74
2022/11/29 00:08:41;;;;;;;37.13;15.50;;;;;;;-148.88;100.00;76528.84;5093325;28;20024;-75
2022/11/29 00:12:10;;;;;;;32.30;15.48;;;;;;;-148.88;100.00;76532.91;5093702;28;20032;-75
2022/11/29 00:14:02;;;;;;;34.83;15.50;;;;;;;-148.88;100.00;76534.94;5094327;28;20032;-75
2022/11/29 00:16:27;;;;;;;35.78;15.15;;;;;;;-148.88;100.00;76528.84;5094790;28;20070;-74
2022/11/29 00:18:52;;;;;;;33.13;16.00;;;;;;;-148.88;100.00;76532.91;5094486;28;20108;-74
2022/11/29 00:21:18;;;;;;;36.47;15.35;;;;;;;-148.88;100.00;76530.88;5094420;28;20099;-74
2022/11/29 00:23:43;;;;;;;39.35;16.17;;;;;;;-148.88;100.00;76532.91;5093009;28;20047;-74
2022/11/29 00:26:09;;;;;;;37.65;16.35;;;;;;;-148.88;100.00;76530.88;5094199;28;20457;-74
2022/11/29 00:28:35;;;;;;;38.63;16.90;;;;;;;-148.88;100.00;76528.84;5094459;28;20024;-74
2022/11/29 00:31:22;;;;;;;38.08;16.50;;;;;;;-148.88;100.00;76541.03;5094646;28;20063;-74
2022/11/29 00:33:48;;;;;;;39.70;16.95;;;;;;;-148.88;100.00;76530.88;5094120;28;20028;-74
2022/11/29 00:36:13;;;;;;;38.88;16.33;;;;;;;-148.88;100.00;76541.03;5092817;28;20107;-75
2022/11/29 00:38:39;;;;;;;43.28;16.63;;;;;;;-148.88;100.00;76532.91;5092747;28;20103;-75
2022/11/29 00:41:05;;;;;;;42.55;18.45;;;;;;;-148.88;100.00;76536.97;5093998;28;20429;-74
2022/11/29 00:43:31;;;;;;;42.83;17.60;;;;;;;-148.88;100.00;76534.94;5093866;28;20035;-75
2022/11/29 00:45:56;;;;;;;43.15;17.55;;;;;;;-148.88;100.00;76543.06;5093849;28;20016;-74
2022/11/29 00:48:21;;;;;;;41.97;16.90;;;;;;;-148.88;100.00;76545.09;5093878;28;20066;-74
2022/11/29 00:50:47;;;;;;;44.72;18.35;;;;;;;-148.88;100.00;76534.94;5094053;28;20059;-75
2022/11/29 00:53:12;;;;;;;50.13;18.75;;;;;;;-148.88;100.00;76545.09;5093676;28;20024;-74
2022/11/29 00:55:37;;;;;;;59.05;19.58;;;;;;;-148.88;100.00;76545.09;5093289;28;20020;-74
2022/11/29 00:58:02;;;;;;;53.40;19.10;;;;;;;-148.88;100.00;76543.06;5094289;28;20047;-75
2022/11/29 01:00:28;;;;;;;55.50;18.98;;;;;;;-148.88;100.00;76545.09;5093844;28;20386;-74
2022/11/29 01:02:53;;;;;;;56.20;20.42;;;;;;;-148.88;100.00;76549.16;5093501;28;20028;-75
2022/11/29 01:05:19;;;;;;;50.67;20.35;;;;;;;-148.88;100.00;76553.22;5093526;28;20045;-74
2022/11/29 01:07:44;;;;;;;53.88;19.10;;;;;;;-148.88;100.00;76547.13;5093427;28;20023;-75
2022/11/29 01:10:09;;;;;;;55.78;18.92;;;;;;;-148.88;100.00;76549.16;5092133;28;20406;-74
2022/11/29 01:12:36;;;;;;;52.33;20.02;;;;;;;-148.88;100.00;76549.16;5093683;28;20109;-74
2022/11/29 01:15:03;;;;;;;55.15;20.13;;;;;;;-148.88;100.00;76551.19;5093429;28;20466;-74
2022/11/29 01:17:28;;;;;;;56.17;19.40;;;;;;;-148.88;100.00;76545.09;5092092;28;20115;-74
2022/11/29 01:19:54;;;;;;;52.50;20.35;;;;;;;-148.88;100.00;76539.00;5093321;28;20498;-74
2022/11/29 01:22:19;;;;;;;45.10;18.27;;;;;;;-148.88;100.00;76536.97;5093560;28;20408;-74
2022/11/29 01:24:44;;;;;;;48.60;18.27;;;;;;;-148.88;100.00;76530.88;5091887;28;20024;-75
2022/11/29 01:27:10;;;;;;;52.90;20.17;;;;;;;-148.88;100.00;76530.88;5093208;28;20375;-74
2022/11/29 01:29:37;;;;;;;51.45;19.73;;;;;;;-148.88;100.00;76528.84;5093237;28;20110;-75
2022/11/29 01:32:02;;;;;;;48.17;18.65;;;;;;;-148.88;100.00;76532.91;5093268;28;20158;-74
2022/11/29 01:34:28;;;;;;;49.17;18.90;;;;;;;-148.88;100.00;76532.91;5093413;28;20091;-74
2022/11/29 01:36:53;;;;;;;52.83;19.88;;;;;;;-148.88;100.00;76528.84;5093147;28;20583;-74
2022/11/29 01:39:18;;;;;;;59.92;19.67;;;;;;;-148.88;100.00;76528.84;5091828;28;20019;-74
2022/11/29 01:41:44;;;;;;;56.00;20.38;;;;;;;-148.88;100.00;76532.91;5093309;28;20016;-74
2022/11/29 01:44:12;;;;;;;47.13;17.55;;;;;;;-148.88;100.00;76524.78;5092989;28;20018;-74
2022/11/29 01:46:39;;;;;;;50.58;18.42;;;;;;;-148.88;100.00;76532.91;5092962;28;20030;-75
2022/11/29 01:49:13;;;;;;;45.10;16.63;;;;;;;-148.88;100.00;76528.84;5092770;28;20024;-74
2022/11/29 01:51:41;;;;;;;39.55;15.80;;;;;;;-148.88;100.00;76532.91;5093536;28;20114;-74
2022/11/29 01:54:08;;;;;;;46.60;17.38;;;;;;;-148.88;100.00;76524.78;5092893;28;20035;-74
2022/11/29 01:56:34;;;;;;;49.15;17.80;;;;;;;-148.88;100.00;76524.78;5092949;28;20024;-74
2022/11/29 01:59:07;;;;;;;54.25;18.58;;;;;;;-148.88;100.00;76530.88;5093356;28;20023;-74
2022/11/29 02:01:34;;;;;;;53.80;19.13;;;;;;;-148.88;100.00;76526.81;5093186;28;20391;-75
2022/11/29 02:04:00;;;;;;;50.95;19.02;;;;;;;-148.88;100.00;76528.84;5091512;28;20024;-74
2022/11/29 02:06:27;;;;;;;48.70;16.63;;;;;;;-148.88;100.00;76526.81;5092753;28;20028;-74
2022/11/29 02:08:52;;;;;;;46.40;17.38;;;;;;;-148.88;100.00;76532.91;5092895;28;20559;-74
2022/11/29 02:11:23;;;;;;;68.03;19.88;;;;;;;-148.88;100.00;76530.88;5092913;28;20112;-74
2022/11/29 02:14:01;;;;;;;46.30;17.85;;;;;;;-148.88;100.00;76532.91;5093218;28;20425;-74
2022/11/29 02:16:47;;;;;;;49.13;17.65;;;;;;;-148.88;100.00;76545.09;5093025;28;20020;-74
2022/11/29 02:19:53;;;;;;;47.75;18.05;;;;;;;-148.88;100.00;76541.03;5092810;28;20023;-74
2022/11/29 02:22:28;;;;;;;54.13;17.90;;;;;;;-148.88;100.00;76545.09;5092981;28;20027;-74
2022/11/29 02:25:22;;;;;;;42.40;17.23;;;;;;;-148.88;100.00;76549.16;5091225;28;20458;-74
2022/11/29 02:28:17;;;;;;;50.90;18.77;;;;;;;-148.88;100.00;76549.16;5092865;28;20031;-75
2022/11/29 02:31:11;;;;;;;52.60;18.35;;;;;;;-148.88;100.00;76547.13;5092516;28;20052;-74
2022/11/29 02:33:55;;;;;;;59.67;18.48;;;;;;;-148.88;100.00;76549.16;5062975;28;20040;-74
2022/11/29 02:36:42;;;;;;;48.90;17.67;;;;;;;-148.88;100.00;76553.22;5094749;28;20028;-75
2022/11/29 02:39:33;;;;;;;53.85;18.73;;;;;;;-148.88;100.00;76547.13;5095170;28;20028;-75
2022/11/29 02:42:17;;;;;;;46.30;16.95;;;;;;;-148.88;100.00;76545.09;5095027;28;20024;-74
2022/11/29 02:44:57;;;;;;;;;;;;;;;-148.88;100.00;76553.22;5105122;22;20441;-84
2022/11/29 02:47:59;;;;;;;54.95;18.27;;;;;;;-148.88;100.00;76545.09;5037490;28;19983;-84
2022/11/29 02:50:39;;;;;;;57.65;19.42;;;;;;;-148.88;100.00;76557.28;5047987;28;20067;-85
2022/11/29 02:53:15;;;;;;;62.58;19.38;;;;;;;-148.88;100.00;76559.31;5059782;28;20033;-85
2022/11/29 02:56:27;;;;;;;71.18;19.85;;;;;;;-148.88;100.00;76561.34;5060356;28;20020;-83
2022/11/29 02:59:19;;;;;;;49.80;16.65;;;;;;;-148.88;100.00;76555.25;5057428;28;20509;-84
2022/11/29 03:02:21;;;;;;;64.65;19.17;;;;;;;-148.88;100.00;76561.34;5057075;28;20020;-83
2022/11/29 03:05:11;;;;;;;55.22;19.42;;;;;;;-148.88;100.00;76557.28;5039776;28;20033;-85
2022/11/29 03:07:43;;;;;;;64.25;18.50;;;;;;;-148.88;100.00;76559.31;5060796;28;20027;-85
2022/11/29 03:10:30;;;;;;;59.60;18.95;;;;;;;-148.88;100.00;76561.34;5060515;28;20028;-85
2022/11/29 03:13:04;;;;;;;59.20;18.88;;;;;;;-148.88;100.00;76565.41;5061048;28;20036;-85
2022/11/29 03:15:43;;;;;;;74.10;21.10;;;;;;;-148.88;100.00;76569.47;5061614;28;20029;-84
2022/11/29 03:18:30;;;;;;;51.75;18.45;;;;;;;-148.88;100.00;76567.44;5061667;28;20032;-85
2022/11/29 03:21:29;;;;;;;47.65;18.08;;;;;;;-148.88;100.00;76567.44;5059233;28;20100;-85
2022/11/29 03:24:13;;;;;;;48.78;18.20;;;;;;;-148.88;100.00;76565.41;5059468;28;20024;-84
2022/11/29 03:27:28;;;;;;;58.83;19.58;;;;;;;-148.88;100.00;76569.47;5060589;28;20036;-85
2022/11/29 03:30:51;;;;;;;56.78;19.13;;;;;;;-148.88;100.00;76577.59;5059518;28;20063;-83
2022/11/29 03:34:19;;;;;;;57.88;19.15;;;;;;;-148.88;100.00;76581.66;5037520;28;20038;-83
2022/11/29 03:36:59;;;;;;;55.28;17.83;;;;;;;-148.88;100.00;76577.59;4971556;28;20057;-84
2022/11/29 03:39:33;;;;;;;41.10;16.40;;;;;;;-148.88;100.00;76583.69;5058055;28;20025;-83
2022/11/29 03:42:03;;;;;;;55.13;18.42;;;;;;;-148.88;100.00;76577.59;5077492;28;20025;-83
2022/11/29 03:45:07;;;;;;;53.65;18.08;;;;;;;-148.88;100.00;76573.53;5063283;28;20024;-84
2022/11/29 03:48:00;;;;;;;52.30;17.35;;;;;;;-148.88;100.00;76581.66;5027698;28;20052;-86
2022/11/29 03:50:56;;;;;;;64.88;18.90;;;;;;;-148.88;100.00;76577.59;5059353;28;20040;-85
2022/11/29 03:53:35;;;;;;;48.83;16.98;;;;;;;-148.88;100.00;76581.66;5063402;28;20021;-85
2022/11/29 03:56:04;;;;;;;49.30;16.13;;;;;;;-148.88;100.00;76577.59;5061765;28;20028;-84
2022/11/29 03:59:03;;;;;;;44.03;15.88;;;;;;;-148.88;100.00;76577.59;5062502;28;20017;-83
2022/11/29 04:02:20;;;;;;;57.83;16.60;;;;;;;-148.88;100.00;76577.59;5023878;28;20048;-85
2022/11/29 04:04:57;;;;;;;43.42;17.08;;;;;;;-148.88;100.00;76577.59;5048914;28;20387;-84
2022/11/29 04:08:00;;;;;;;51.03;17.58;;;;;;;-148.88;100.00;76579.63;5061903;28;20411;-84
2022/11/29 04:11:09;;;;;;;50.45;17.80;;;;;;;-148.88;100.00;76573.53;5055390;28;20119;-84
2022/11/29 04:13:53;;;;;;;53.05;18.23;;;;;;;-148.88;100.00;76577.59;5057429;28;20044;-84
2022/11/29 04:16:57;;;;;;;68.10;19.55;;;;;;;-148.88;100.00;76575.56;5058335;28;20120;-84
2022/11/29 04:19:55;;;;;;;62.20;18.93;;;;;;;-148.88;100.00;76573.53;5045709;28;20068;-85
2022/11/29 04:22:38;;;;;;;52.78;17.55;;;;;;;-148.88;100.00;76573.53;5057575;28;20369;-85
2022/11/29 04:25:31;;;;;;;55.47;17.70;;;;;;;-148.88;100.00;76571.50;5058851;28;20079;-85
2022/11/29 04:28:10;;;;;;;67.05;19.33;;;;;;;-148.88;100.00;76579.63;5059404;28;20032;-83
2022/11/29 04:31:12;;;;;;;53.63;15.45;;;;;;;-148.88;100.00;76577.59;5057043;28;20033;-84
2022/11/29 04:33:44;;;;;;;48.70;15.52;;;;;;;-148.88;100.00;76575.56;5074713;28;20025;-84
2022/11/29 04:36:33;;;;;;;54.75;17.85;;;;;;;-148.88;100.00;76585.72;5059036;28;20032;-83
2022/11/29 04:39:22;;;;;;;37.40;14.68;;;;;;;-148.88;100.00;76585.72;5057107;28;20032;-83
2022/11/29 04:42:19;;;;;;;67.13;16.95;;;;;;;-148.88;100.00;76589.78;5056786;28;20133;-83
2022/11/29 04:45:08;;;;;;;43.80;15.52;;;;;;;-148.88;100.00;76587.75;5056210;28;20111;-83
2022/11/29 04:47:58;;;;;;;84.32;17.65;;;;;;;-148.88;100.00;76587.75;5055037;28;20079;-83
2022/11/29 04:50:41;;;;;;;51.97;17.20;;;;;;;-148.88;100.00;76585.72;5055589;28;20039;-82
2022/11/29 04:53:23;;;;;;;52.00;18.02;;;;;;;-148.88;100.00;76589.78;5056864;28;20155;-84
2022/11/29 04:55:58;;;;;;;50.67;17.50;;;;;;;-148.88;100.00;76595.88;5056506;28;20495;-83
2022/11/29 04:59:07;;;;;;;48.60;16.65;;;;;;;-148.88;100.00;76599.94;5057852;28;20021;-82
2022/11/29 05:01:52;;;;;;;70.82;18.25;;;;;;;-148.88;100.00;76601.97;5047034;28;20027;-83
2022/11/29 05:04:26;;;;;;;50.17;16.30;;;;;;;-148.88;100.00;76604.00;5052760;28;20029;-83
2022/11/29 05:06:51;;;;;;;42.65;17.17;;;;;;;-148.88;100.00;76606.06;5053927;28;20522;-86
2022/11/29 05:09:51;;;;;;;53.58;16.50;;;;;;;-148.88;100.00;76606.06;5058837;28;20025;-84
2022/11/29 05:12:44;;;;;;;45.92;17.17;;;;;;;-148.88;100.00;76601.97;5060568;28;20033;-82
2022/11/29 05:15:24;;;;;;;46.78;18.00;;;;;;;-148.88;100.00;76610.13;5057364;28;20021;-83
2022/11/29 05:18:26;;;;;;;54.00;18.02;;;;;;;-148.88;100.00;76608.09;5055881;28;20490;-83
2022/11/29 05:21:18;;;;;;;57.88;17.92;;;;;;;-148.88;100.00;76604.00;5080855;22;20075;-74
2022/11/29 05:24:11;;;;;;;78.07;19.23;;;;;;;-148.88;100.00;76610.13;5098101;28;20043;-73
2022/11/29 05:27:10;;;;;;;51.92;16.98;;;;;;;-148.88;100.00;76608.09;5073747;28;20037;-74
2022/11/29 05:29:52;;;;;;;61.35;19.10;;;;;;;-148.88;100.00;76610.13;5070396;28;20494;-75
2022/11/29 05:32:35;;;;;;;68.55;19.55;;;;;;;-148.88;100.00;76610.13;5073185;28;20538;-74
2022/11/29 05:35:27;;;;;;;56.47;18.17;;;;;;;-148.88;100.00;76616.22;5073230;28;20024;-74
2022/11/29 05:38:36;;;;;;;86.80;19.58;;;;;;;-148.88;100.00;76620.28;5071860;28;20025;-74
2022/11/29 05:41:23;;;;;;;79.25;19.05;;;;;;;-148.88;100.00;76618.25;5071775;28;20024;-74
2022/11/29 05:44:03;;;;;;;52.95;17.40;;;;;;;-148.88;100.00;76610.13;5072973;28;20028;-74
2022/11/29 05:46:55;;;;;;;62.50;18.85;;;;;;;-148.88;100.00;76614.19;5072965;28;20027;-74
2022/11/29 05:49:25;;;;;;;56.80;18.73;;;;;;;-148.88;100.00;76622.31;5071642;28;20017;-75
2022/11/29 05:52:21;;;;;;;65.97;18.25;;;;;;;-148.88;100.00;76622.31;5071720;28;20028;-74
2022/11/29 05:55:05;;;;;;;99.00;20.25;;;;;;;-148.88;100.00;76624.34;5071519;28;20027;-74
2022/11/29 05:57:42;;;;;;;56.55;18.20;;;;;;;-148.88;100.00;76630.44;5072930;28;20028;-74
2022/11/29 06:00:13;;;;;;;109.38;20.88;;;;;;;-148.88;100.00;76626.38;5073189;28;20025;-75
2022/11/29 06:03:05;;;;;;;228.90;26.88;;;;;;;-148.88;100.00;76634.50;5072889;28;20063;-74
2022/11/29 06:05:38;;;;;;;58.58;19.90;;;;;;;-148.88;100.00;76628.41;5072002;28;20094;-74
2022/11/29 06:08:14;;;;;;;54.58;21.00;;;;;;;-148.88;100.00;76630.44;5073014;28;20044;-74
2022/11/29 06:10:55;;;;;;;53.13;19.42;;;;;;;-148.88;100.00;76630.44;5075136;28;20059;-74
2022/11/29 06:13:37;;;;;;;52.88;18.02;;;;;;;-148.88;100.00;76632.47;5076635;28;20070;-75
2022/11/29 06:16:21;;;;;;;51.40;17.17;;;;;;;-148.88;100.00;76634.50;5076914;28;20030;-75
2022/11/29 06:19:18;;;;;;;64.05;18.20;;;;;;;-148.88;100.00;76638.56;5076823;28;20441;-76
2022/11/29 06:22:09;;;;;;;45.58;17.70;;;;;;;-148.88;100.00;76634.50;5075127;28;20067;-76
2022/11/29 06:25:02;;;;;;;66.57;17.85;;;;;;;-148.88;100.00;76636.53;5076472;28;20024;-75
2022/11/29 06:27:49;;;;;;;93.75;20.20;;;;;;;-148.88;100.00;76636.53;5075542;28;20025;-76
2022/11/29 06:30:21;;;;;;;148.90;24.45;;;;;;;-148.88;100.00;76640.59;5076253;28;20509;-76
2022/11/29 06:33:19;;;;;;;85.97;19.55;;;;;;;-148.88;100.00;76644.66;5076227;28;20033;-75
2022/11/29 06:36:10;;;;;;;46.38;16.42;;;;;;;-148.88;100.00;76642.63;5074840;28;20035;-76
2022/11/29 06:38:36;;;;;;;52.58;18.20;;;;;;;-148.88;100.00;76638.56;5076189;28;20024;-74
2022/11/29 06:41:01;;;;;;;59.58;20.45;;;;;;;-148.88;100.00;76646.69;5074753;28;20025;-76
2022/11/29 06:43:27;;;;;;;56.90;19.00;;;;;;;-148.88;100.00;76646.69;5075835;28;20063;-75
2022/11/29 06:46:03;;;;;;;57.95;18.50;;;;;;;-148.88;100.00;76648.72;5075012;28;20114;-75
2022/11/29 06:48:37;;;;;;;55.83;19.48;;;;;;;-148.88;100.00;76648.72;5074810;28;20024;-75
2022/11/29 06:51:25;;;;;;;54.40;19.70;;;;;;;-148.88;100.00;76642.63;5076196;28;20025;-76
2022/11/29 06:54:22;;;;;;;62.13;19.42;;;;;;;-148.88;100.00;76650.75;5075854;28;20032;-75
2022/11/29 06:56:51;;;;;;;52.70;18.88;;;;;;;-148.88;100.00;76646.69;5069944;28;20157;-75
2022/11/29 06:59:29;;;;;;;59.58;20.13;;;;;;;-148.88;100.00;76650.75;5075885;28;20114;-75
2022/11/29 07:02:32;;;;;;;55.67;20.05;;;;;;;-148.88;100.00;76646.69;5075880;28;20032;-75
2022/11/29 07:05:21;;;;;;;60.00;20.00;;;;;;;-148.88;100.00;76652.78;5075621;28;20017;-75
2022/11/29 07:07:47;;;;;;;47.50;17.90;;;;;;;-148.88;100.00;76650.75;5075753;28;20063;-75
2022/11/29 07:10:17;;;;;;;51.40;17.33;;;;;;;-148.88;100.00;76652.78;5074146;28;20115;-75
2022/11/29 07:12:44;;;;;;;68.10;19.88;;;;;;;-148.88;100.00;76650.75;5075332;28;20078;-75
2022/11/29 07:15:18;;;;;;;89.07;22.50;;;;;;;-148.88;100.00;76656.84;5075626;28;20024;-75
2022/11/29 07:17:59;;;;;;;61.03;20.35;;;;;;;-148.88;100.00;76662.94;5075295;28;20137;-76
2022/11/29 07:20:40;;;;;;;76.35;22.10;;;;;;;-148.88;100.00;76660.91;5074777;28;20093;-75
2022/11/29 07:23:11;;;;;;;78.22;21.80;;;;;;;-148.88;100.00;76664.97;5075635;28;20544;-75
2022/11/29 07:26:17;;;;;;;64.25;18.85;;;;;;;-148.88;100.00;76662.94;5075267;28;20104;-75
2022/11/29 07:29:30;;;;;;;68.25;20.63;;;;;;;-148.88;100.00;76662.94;5075770;28;20058;-75
2022/11/29 07:32:02;;;;;;;60.35;19.67;;;;;;;-148.88;100.00;76660.91;5028483;28;20529;-75
2022/11/29 07:34:55;;;;;;;70.95;20.58;;;;;;;-148.88;100.00;76658.88;5074987;28;20035;-75
2022/11/29 07:37:43;;;;;;;78.95;20.73;;;;;;;-148.88;100.00;76658.88;5073786;28;20035;-75
2022/11/29 07:40:42;;;;;;;53.50;17.85;;;;;;;-148.88;100.00;76654.81;5075158;28;20028;-75
2022/11/29 07:43:33;;;;;;;83.65;21.23;;;;;;;-148.88;100.00;76654.81;5073437;28;20060;-75
2022/11/29 07:45:59;;;;;;;67.30;18.77;;;;;;;-148.88;100.00;76654.81;5075141;28;20055;-75
2022/11/29 07:48:25;;;;;;;67.93;19.85;;;;;;;-148.88;100.00;76660.91;5073421;28;20115;-75
2022/11/29 07:50:51;;;;;;;82.95;23.27;;;;;;;-148.88;100.00;76658.88;5073480;28;20551;-75
2022/11/29 07:53:19;;;;;;;83.20;21.85;;;;;;;-148.88;100.00;76656.84;5073304;28;20052;-75
2022/11/29 07:55:45;;;;;;;112.90;22.80;;;;;;;-148.88;100.00;76654.81;5074645;28;20498;-75
2022/11/29 07:58:11;;;;;;;105.95;23.98;;;;;;;-148.88;100.00;76658.88;5076365;28;20016;-75
2022/11/29 08:00:38;;;;;;;97.22;24.73;;;;;;;-148.88;100.00;76660.91;5081874;28;20102;-75
2022/11/29 08:03:04;;;;;;;84.47;21.80;;;;;;;-148.88;100.00;76656.84;5075233;28;20017;-75
2022/11/29 08:05:29;;;;;;;74.45;22.10;;;;;;;-148.88;100.00;76652.78;5074676;28;20025;-76
2022/11/29 08:07:54;;;;;;;116.78;22.20;;;;;;;-148.88;100.00;76654.81;5073068;28;20066;-75
2022/11/29 08:10:20;;;;;;;68.72;23.15;;;;;;;-148.88;100.00;76656.84;5073088;28;20033;-75
2022/11/29 08:12:48;;;;;;;208.10;27.67;;;;;;;-148.88;100.00;76658.88;5073024;28;20486;-75
2022/11/29 08:15:14;;;;;;;145.77;26.23;;;;;;;-148.88;100.00;76667.00;5074457;28;20479;-75
2022/11/29 08:17:40;;;;;;;94.32;19.67;;;;;;;-148.88;100.00;76662.94;5074175;28;20150;-75
2022/11/29 08:20:07;;;;;;;73.40;21.92;;;;;;;-148.88;100.00;76662.94;5074023;28;20089;-75
2022/11/29 08:22:32;;;;;;;53.00;17.85;;;;;;;-148.88;100.00;76660.91;5074016;28;20028;-75
2022/11/29 08:24:58;;;;;;;68.20;20.02;;;;;;;-148.88;100.00;76662.94;5073977;28;20493;-75
2022/11/29 08:27:24;;;;;;;71.60;20.88;;;;;;;-148.88;100.00;76656.84;5073979;28;20020;-76
2022/11/29 08:29:49;;;;;;;88.25;21.88;;;;;;;-148.88;100.00;76656.84;5074151;28;20119;-76
2022/11/29 08:32:14;;;;;;;60.78;19.27;;;;;;;-148.88;100.00;76650.75;5071823;28;20207;-75
2022/11/29 08:34:40;;;;;;;67.43;19.38;;;;;;;-148.88;100.00;76658.88;5073750;28;20467;-75
2022/11/29 08:37:05;;;;;;;86.53;20.95;;;;;;;-148.88;100.00;76658.88;5072817;28;20038;-75
2022/11/29 08:39:30;;;;;;;61.63;19.40;;;;;;;-148.88;100.00;76656.84;5073905;28;20016;-75
2022/11/29 08:41:56;;;;;;;90.78;21.83;;;;;;;-148.88;100.00;76652.78;5072693;28;20050;-75
2022/11/29 08:44:21;;;;;;;82.22;19.83;;;;;;;-148.88;100.00;76650.75;5072347;28;20052;-75
2022/11/29 08:49:30;;;;;;;73.60;20.65;;;;;;;-148.88;100.00;76652.78;5073837;28;20507;-75
2022/11/29 08:53:39;;;;;;;67.63;20.25;;;;;;;-148.88;100.00;76650.75;5072252;28;20038;-75
2022/11/29 08:54:41;;;;;;;66.53;21.30;;;;;;;-148.88;100.00;76646.69;5073252;28;20036;-75
2022/11/29 08:57:06;;;;;;;60.70;18.17;;;;;;;-148.88;100.00;76642.63;5073952;28;20032;-75
2022/11/29 08:59:32;;;;;;;54.25;17.48;;;;;;;-148.88;100.00;76638.56;5073843;28;20100;-76
2022/11/29 09:01:57;;;;;;;89.40;21.08;;;;;;;-148.88;100.00;76636.53;5072085;28;20056;-75
2022/11/29 09:04:22;;;;;;;76.95;20.08;;;;;;;-148.88;100.00;76632.47;5073314;28;20032;-75
2022/11/29 09:06:48;;;;;;;111.20;22.13;;;;;;;-148.88;100.00;76644.66;5073351;28;20367;-75
2022/11/29 09:09:14;;;;;;;93.55;20.23;;;;;;;-148.88;100.00;76652.78;5073182;28;20020;-76
2022/11/29 09:11:41;;;;;;;90.20;22.40;;;;;;;-148.88;100.00;76654.81;5073223;28;20025;-75
2022/11/29 09:14:07;;;;;;;89.03;20.02;;;;;;;-148.88;100.00;76652.78;5073399;28;20024;-75
2022/11/29 09:16:35;;;;;;;71.65;19.88;;;;;;;-148.88;100.00;76650.75;5073373;28;20016;-76
2022/11/29 09:19:01;;;;;;;73.82;20.70;;;;;;;-148.88;100.00;76650.75;5073146;28;20092;-75
2022/11/29 09:21:29;;;;;;;66.45;18.13;;;;;;;-148.88;100.00;76654.81;5072925;28;20116;-75
2022/11/29 09:23:58;;;;;;;94.85;21.50;;;;;;;-148.88;100.00;76654.81;5072945;28;20066;-75
2022/11/29 09:26:28;;;;;;;94.78;20.88;;;;;;;-148.88;100.00;76656.84;5072980;28;20052;-76
2022/11/29 09:28:54;;;;;;;58.20;19.15;;;;;;;-148.88;100.00;76646.69;5073140;28;20463;-76
2022/11/29 09:31:20;;;;;;;79.15;20.75;;;;;;;-148.88;100.00;76648.72;5072895;28;20521;-76
2022/11/29 09:33:46;;;;;;;64.10;19.23;;;;;;;-148.88;100.00;76646.69;5072900;28;20525;-76
2022/11/29 09:36:12;;;;;;;91.78;20.52;;;;;;;-148.88;100.00;76644.66;5072798;28;20029;-76
2022/11/29 09:38:38;;;;;;;87.47;20.33;;;;;;;-148.88;100.00;76638.56;5072689;28;20024;-75
2022/11/29 09:41:22;;;;;;;81.32;23.65;;;;;;;-148.88;100.00;76642.63;5071548;28;20016;-76
2022/11/29 09:43:59;;;;;;;;;;;;;;;-148.88;100.00;76648.72;5073065;28;20107;-75
2022/11/29 09:46:39;;;;;;;68.88;18.95;;;;;;;-148.88;100.00;76644.66;5072833;28;19912;-76
2022/11/29 09:49:26;;;;;;;72.82;20.90;;;;;;;-148.88;100.00;76644.66;5073185;28;20036;-75
2022/11/29 09:52:23;;;;;;;82.55;21.00;;;;;;;-148.88;100.00;76644.66;5073191;28;20040;-77
2022/11/29 09:54:54;;;;;;;92.30;23.65;;;;;;;-148.88;100.00;76642.63;5069141;28;20044;-76
2022/11/29 09:57:22;;;;;;;105.60;26.08;;;;;;;-148.88;100.00;76638.56;5072697;28;20024;-76
2022/11/29 09:59:53;;;;;;;70.93;21.70;;;;;;;-148.88;100.00;76640.59;5071385;28;20016;-76
2022/11/29 10:02:31;;;;;;;81.05;22.85;;;;;;;-148.88;100.00;76634.50;5072969;28;20028;-77
2022/11/29 10:05:15;;;;;;;89.30;23.52;;;;;;;-148.88;100.00;76632.47;5072718;28;20085;-76
2022/11/29 10:07:58;;;;;;;75.70;21.15;;;;;;;-148.88;100.00;76632.47;5073008;28;20464;-77
2022/11/29 10:10:29;;;;;;;101.55;23.40;;;;;;;-148.88;100.00;76626.38;5071300;28;20077;-76
2022/11/29 10:13:02;;;;;;;92.18;24.05;;;;;;;-148.88;100.00;76618.25;5072451;28;20023;-76
2022/11/29 10:15:32;;;;;;;101.47;24.33;;;;;;;-148.88;100.00;76612.13;5071246;28;20024;-77
2022/11/29 10:18:02;;;;;;;89.78;23.63;;;;;;;-148.88;100.00;76610.13;5071234;28;20146;-77
2022/11/29 10:20:33;;;;;;;78.18;21.75;;;;;;;-148.88;100.00;76601.97;5072593;28;20062;-77
2022/11/29 10:23:02;;;;;;;92.88;23.88;;;;;;;-148.88;100.00;76608.09;5072466;28;20032;-76
2022/11/29 10:25:47;;;;;;;102.80;25.58;;;;;;;-148.88;100.00;76608.09;5071365;28;20021;-77
2022/11/29 10:28:16;;;;;;;83.55;21.67;;;;;;;-148.88;100.00;76597.91;5072964;28;20017;-77
2022/11/29 10:30:42;;;;;;;87.57;22.48;;;;;;;-148.88;100.00;76593.84;5072405;28;20078;-77
2022/11/29 10:33:17;;;;;;;87.40;21.67;;;;;;;-148.88;100.00;76587.75;5072247;28;20500;-76
2022/11/29 10:35:44;;;;;;;72.72;20.67;;;;;;;-148.88;100.00;76581.66;5072452;28;20028;-77
2022/11/29 10:38:11;;;;;;;90.38;24.02;;;;;;;-148.88;100.00;76573.53;5072354;28;20025;-77
2022/11/29 10:40:40;;;;;;;88.07;23.23;;;;;;;-148.88;100.00;76575.56;5072349;28;20078;-76
2022/11/29 10:43:05;;;;;;;87.45;24.60;;;;;;;-148.88;100.00;76571.50;5070879;28;20020;-76
2022/11/29 10:45:38;;;;;;;82.47;23.70;;;;;;;-148.88;100.00;76569.47;5072232;28;20074;-77
2022/11/29 10:48:05;;;;;;;76.22;21.52;;;;;;;-148.88;100.00;76567.44;5072283;28;20029;-77
2022/11/29 10:50:34;;;;;;;81.57;21.65;;;;;;;-148.88;100.00;76561.34;5070993;28;20039;-77
2022/11/29 10:53:09;;;;;;;80.45;22.77;;;;;;;-148.88;100.00;76557.28;5072461;28;20032;-76
2022/11/29 10:56:04;;;;;;;73.65;21.90;;;;;;;-148.88;100.00;76565.41;5072739;28;20495;-77
2022/11/29 10:58:30;;;;;;;80.35;21.02;;;;;;;-148.88;100.00;76555.25;5075291;28;20040;-77
2022/11/29 11:01:01;;;;;;;91.18;23.65;;;;;;;-148.88;100.00;76553.22;5074414;28;20031;-77
2022/11/29 11:03:35;;;;;;;76.35;23.00;;;;;;;-148.88;100.00;76557.28;5075972;28;20024;-77
2022/11/29 11:06:23;;;;;;;71.95;22.10;;;;;;;-148.88;100.00;76557.28;5074368;28;20433;-77
2022/11/29 11:08:50;;;;;;;69.00;19.13;;;;;;;-148.88;100.00;76549.16;5073729;28;20028;-76
2022/11/29 11:11:27;;;;;;;65.53;21.38;;;;;;;-148.88;100.00;76549.16;5075546;28;20486;-77
2022/11/29 11:14:02;;;;;;;77.10;22.70;;;;;;;-148.88;100.00;76536.97;5075444;28;20095;-77
2022/11/29 11:16:28;;;;;;;70.45;22.08;;;;;;;-148.88;100.00;76545.09;5075483;28;20020;-77
2022/11/29 11:18:53;;;;;;;73.13;22.27;;;;;;;-148.88;100.00;76541.03;5074056;28;20441;-77
2022/11/29 11:21:22;;;;;;;69.28;20.55;;;;;;;-148.88;100.00;76536.97;5075154;28;20028;-77
2022/11/29 11:23:58;;;;;;;70.95;20.95;;;;;;;-148.88;100.00;76530.88;5075177;28;20070;-76
2022/11/29 11:26:24;;;;;;;70.70;21.45;;;;;;;-148.88;100.00;76534.94;5074000;28;20029;-77
2022/11/29 11:28:57;;;;;;;66.75;20.05;;;;;;;-148.88;100.00;76524.78;5075185;28;20038;-77
2022/11/29 11:31:31;;;;;;;71.70;19.00;;;;;;;-148.88;100.00;76522.75;5075199;28;20052;-76
2022/11/29 11:34:22;;;;;;;66.68;19.48;;;;;;;-148.88;100.00;76516.66;5075122;28;20423;-76
2022/11/29 11:36:47;;;;;;;91.22;20.13;;;;;;;-148.88;100.00;76520.72;5074099;28;20367;-76
2022/11/29 11:39:20;;;;;;;79.55;19.35;;;;;;;-148.88;100.00;76520.72;5075162;28;20558;-76
2022/11/29 11:44:52;;;;;;;85.72;20.20;;;;;;;-148.88;100.00;76536.97;5075091;28;20031;-76